This is the latest recevied weather packets stored in our database for station/object WC4PEM-6. If no packets are shown the sender has not sent any weather packets the latest 1 day(s).
| Time | Temp. | Humidity | Pressure | Rain* | Wind** | Luminosity | Snow |
|---|---|---|---|---|---|---|---|
| 1778088903 | 31.11° C | 47% | 1016.1 hPa | 0 mm | - | - | - |
| 1778088401 | 31.11° C | 45% | 1016.2 hPa | 0 mm | - | - | - |
| 1778088303 | 31.11° C | 47% | 1016.1 hPa | 0 mm | - | - | - |
| 1778087703 | 31.11° C | 48% | 1016.4 hPa | 0 mm | - | - | - |
| 1778087403 | 31.11° C | 49% | 1016.5 hPa | 0 mm | - | - | - |
| 1778087103 | 31.11° C | 48% | 1016.4 hPa | 0 mm | - | - | - |
| 1778086503 | 31.11° C | 48% | 1016.5 hPa | 0 mm | - | - | - |
| 1778085953 | 31.11° C | 50% | 1016.5 hPa | 0 mm | - | - | - |
| 1778085903 | 31.11° C | 50% | 1016.5 hPa | 0 mm | - | - | - |
| 1778085750 | 30.56° C | 51% | 1016.4 hPa | 0 mm | - | - | - |
| 1778085603 | 30.56° C | 51% | 1016.4 hPa | 0 mm | - | - | - |
| 1778084703 | 31.11° C | 52% | 1016.4 hPa | 0 mm | - | - | - |
| 1778084160 | 30.56° C | 53% | 1016.4 hPa | 0 mm | - | - | - |
| 1778084103 | 30.56° C | 53% | 1016.4 hPa | 0 mm | - | - | - |
| 1778083941 | 30° C | 53% | 1016.5 hPa | 0 mm | - | - | - |
| 1778083591 | 30.56° C | 53% | 1016.4 hPa | 0 mm | - | - | - |
| 1778081162 | 29.44° C | 54% | 1016.7 hPa | 0 mm | - | - | - |
| 1778080005 | 28.33° C | 64% | 1016.5 hPa | 0 mm | - | - | - |
| 1778079303 | 28.33° C | 65% | 1016.8 hPa | 0 mm | - | - | - |
| 1778079303 | 28.89° C | 64% | 1016.6 hPa | 0 mm | - | - | - |
| 1778078832 | 28.33° C | 65% | 1016.8 hPa | 0 mm | - | - | - |
| 1778077422 | 26.11° C | 75% | 1016.5 hPa | 0 mm | - | - | - |
| 1778077332 | 26.67° C | 72% | 1016.8 hPa | 0 mm | - | - | - |
| 1778077149 | 26.11° C | 75% | 1016.5 hPa | 0 mm | - | - | - |
| 1778076991 | 26.67° C | 73% | 1016.9 hPa | 0 mm | - | - | - |
* Rain latest hour (hover to see other rain measurements)
** Current wind speed in m/s (hover to see current wind gust speed)